.
WxDataArchive / Data Records for 2006-11-23
2006-11-22 November 2006 2006-11-24

Data Records for Thursday, 23 November 2006

Time	Temp	Chill	HIndex	Humid	Dewpt	 Wind 	HiWind	WindDir	Rain 	Barom 
-----	----	-----	------	-----	-----	------	------	-------	-----	----- 
00:00	30.4	30.4	30.4	89	27.6	0	0	---	0.00	30.274 
00:05	30.3	30.3	30.3	89	27.5	0	0	---	0.00	30.274 
00:10	30.1	30.1	30.1	90	27.5	0	0	---	0.00	30.274 
00:15	30.0	30.0	30.0	90	27.4	0	0	---	0.00	30.270 
00:20	29.7	29.7	29.7	90	27.1	0	0	---	0.00	30.270 
00:25	29.5	29.5	29.5	90	26.9	0	0	---	0.00	30.270 
00:30	29.3	29.3	29.3	90	26.7	0	0	---	0.00	30.264 
00:35	29.1	29.1	29.1	91	26.8	0	0	---	0.00	30.264 
00:40	29.1	29.1	29.1	91	26.8	0	0	---	0.00	30.264 
00:45	29.1	29.1	29.1	91	26.8	0	0	---	0.00	30.260 
00:50	29.0	29.0	29.0	91	26.7	0	0	---	0.00	30.260 
00:55	29.0	29.0	29.0	92	27.0	0	0	---	0.00	30.260 
01:00	29.0	29.0	29.0	92	27.0	0	0	---	0.00	30.260 
01:05	28.7	28.7	28.7	92	26.7	0	0	---	0.00	30.260 
01:10	28.7	28.7	28.7	92	26.7	0	0	---	0.00	30.260 
01:15	28.7	28.7	28.7	92	26.7	0	0	---	0.00	30.268 
01:20	28.5	28.5	28.5	92	26.5	0	0	---	0.00	30.268 
01:25	28.4	28.4	28.4	92	26.4	0	0	---	0.00	30.268 
01:30	28.2	28.2	28.2	92	26.2	0	0	---	0.00	30.271 
01:35	28.1	28.1	28.1	92	26.1	0	0	---	0.00	30.271 
01:40	27.9	27.9	27.9	92	25.9	0	0	---	0.00	30.271 
01:45	27.8	27.8	27.8	92	25.8	0	0	---	0.00	30.267 
01:50	27.6	27.6	27.6	92	25.6	0	0	---	0.00	30.267 
01:55	27.5	27.5	27.5	92	25.5	0	0	---	0.00	30.267 
02:00	27.2	27.2	27.2	92	25.2	0	0	---	0.00	30.258 
02:05	27.2	27.2	27.2	92	25.2	0	0	---	0.00	30.258 
02:10	27.0	27.0	27.0	92	25.0	0	0	---	0.00	30.258 
02:15	27.0	27.0	27.0	92	25.0	0	0	---	0.00	30.258 
02:20	27.0	27.0	27.0	93	25.3	0	0	---	0.00	30.258 
02:25	27.2	27.2	27.2	93	25.4	0	0	---	0.00	30.258 
02:30	27.3	27.3	27.3	93	25.5	0	0	---	0.00	30.261 
02:35	27.6	27.6	27.6	94	26.1	0	0	---	0.00	30.261 
02:40	27.9	27.9	27.9	94	26.4	0	0	---	0.00	30.261 
02:45	28.2	28.2	28.2	94	26.7	0	0	---	0.00	30.255 
02:50	28.4	28.4	28.4	94	26.9	0	0	---	0.00	30.255 
02:55	28.8	28.8	28.8	95	27.6	0	0	---	0.00	30.255 
03:00	29.3	29.3	29.3	95	28.0	0	0	---	0.00	30.257 
03:05	29.7	29.7	29.7	95	28.4	0	1	90	0.00	30.257 
03:10	30.7	30.7	30.7	96	29.7	0	1	90	0.00	30.257 
03:15	31.3	31.3	31.3	96	30.3	0	2	90	0.00	30.253 
03:20	31.5	31.5	31.5	96	30.5	0	1	90	0.00	30.253 
03:25	31.6	31.6	31.6	96	30.6	1	2	90	0.00	30.253 
03:30	31.5	31.5	31.5	96	30.5	1	3	90	0.00	30.248 
03:35	31.5	31.5	31.5	96	30.5	1	2	90	0.00	30.248 
03:40	31.3	31.3	31.3	96	30.3	1	2	90	0.00	30.248 
03:45	31.3	31.3	31.3	96	30.3	0	2	90	0.00	30.245 
03:50	31.3	31.3	31.3	96	30.3	0	2	90	0.00	30.245 
03:55	31.2	31.2	31.2	96	30.2	0	2	90	0.00	30.245 
04:00	31.2	31.2	31.2	96	30.2	0	1	90	0.00	30.252 
04:05	31.2	31.2	31.2	96	30.2	0	1	90	0.00	30.252 
04:10	31.2	31.2	31.2	96	30.2	0	1	90	0.00	30.252 
04:15	31.2	31.2	31.2	96	30.2	0	1	90	0.00	30.255 
04:20	31.3	31.3	31.3	96	30.3	0	2	90	0.00	30.255 
04:25	31.3	31.3	31.3	96	30.3	1	2	90	0.00	30.255 
04:30	31.3	31.3	31.3	96	30.3	0	1	90	0.00	30.256 
04:35	31.3	31.3	31.3	96	30.3	1	3	90	0.00	30.256 
04:40	31.3	31.3	31.3	96	30.3	0	2	90	0.00	30.256 
04:45	31.5	31.5	31.5	96	30.5	0	2	90	0.00	30.254 
04:50	31.5	31.5	31.5	96	30.5	1	2	90	0.00	30.254 
04:55	31.5	31.5	31.5	97	30.7	0	1	90	0.00	30.254 
05:00	31.5	31.5	31.5	97	30.7	0	2	90	0.00	30.252 
05:05	31.5	31.5	31.5	97	30.7	0	2	90	0.00	30.252 
05:10	31.5	31.5	31.5	97	30.7	0	1	90	0.00	30.252 
05:15	31.3	31.3	31.3	97	30.5	1	2	90	0.00	30.262 
05:20	31.5	31.5	31.5	97	30.7	0	1	90	0.00	30.262 
05:25	31.5	31.5	31.5	97	30.7	0	1	90	0.00	30.262 
05:30	31.5	31.5	31.5	97	30.7	0	0	---	0.00	30.272 
05:35	31.3	31.3	31.3	97	30.5	0	1	90	0.00	30.272 
05:40	31.3	31.3	31.3	97	30.5	0	1	90	0.00	30.272 
05:45	31.3	31.3	31.3	97	30.5	0	0	---	0.00	30.273 
05:50	31.2	31.2	31.2	97	30.4	0	1	90	0.00	30.273 
05:55	31.2	31.2	31.2	97	30.4	0	1	90	0.00	30.273 
06:00	31.2	31.2	31.2	97	30.4	0	0	---	0.00	30.276 
06:05	31.2	31.2	31.2	97	30.4	0	2	90	0.00	30.276 
06:10	31.2	31.2	31.2	97	30.4	0	1	90	0.00	30.276 
06:15	31.2	31.2	31.2	97	30.4	0	1	90	0.00	30.279 
06:20	31.2	31.2	31.2	97	30.4	0	2	90	0.00	30.279 
06:25	31.2	31.2	31.2	97	30.4	0	0	---	0.00	30.279 
06:30	31.2	31.2	31.2	97	30.4	0	0	---	0.00	30.280 
06:35	31.2	31.2	31.2	97	30.4	0	1	90	0.00	30.280 
06:40	31.2	31.2	31.2	97	30.4	0	1	90	0.00	30.280 
06:45	31.2	31.2	31.2	97	30.4	0	1	90	0.00	30.282 
06:50	31.2	31.2	31.2	97	30.4	0	0	---	0.00	30.282 
06:55	31.2	31.2	31.2	97	30.4	0	1	90	0.00	30.282 
07:00	31.2	31.2	31.2	97	30.4	0	1	90	0.00	30.286 
07:05	31.2	31.2	31.2	97	30.4	0	0	---	0.00	30.286 
07:10	31.2	31.2	31.2	97	30.4	0	1	90	0.00	30.286 
07:15	31.2	31.2	31.2	97	30.4	0	2	90	0.00	30.294 
07:20	31.0	31.0	31.0	97	30.3	0	2	90	0.00	30.294 
07:25	30.9	30.9	30.9	97	30.2	0	2	90	0.00	30.294 
07:30	30.7	30.7	30.7	97	30.0	0	2	90	0.00	30.291 
07:35	30.6	30.6	30.6	97	29.9	0	1	90	0.00	30.291 
07:40	30.6	30.6	30.6	97	29.9	0	2	90	0.00	30.291 
07:45	30.4	30.4	30.4	97	29.7	0	1	90	0.00	30.291 
07:50	30.3	30.3	30.3	97	29.6	0	0	---	0.00	30.291 
07:55	30.3	30.3	30.3	97	29.6	0	1	90	0.00	30.291 
08:00	30.3	30.3	30.3	97	29.6	0	0	---	0.00	30.295 
08:05	30.1	30.1	30.1	97	29.4	0	0	---	0.00	30.295 
08:10	30.1	30.1	30.1	97	29.4	0	1	90	0.00	30.295 
08:15	30.1	30.1	30.1	97	29.4	0	1	90	0.00	30.298 
08:20	30.1	30.1	30.1	97	29.4	0	1	90	0.00	30.298 
08:25	30.0	30.0	30.0	97	29.3	0	0	---	0.00	30.298 
08:30	30.0	30.0	30.0	97	29.3	0	1	90	0.00	30.303 
08:35	30.0	30.0	30.0	97	29.3	0	2	90	0.00	30.303 
08:40	30.0	30.0	30.0	97	29.3	0	1	90	0.00	30.303 
08:45	30.0	30.0	30.0	97	29.3	0	0	---	0.00	30.303 
08:50	29.8	29.8	29.8	97	29.1	0	0	---	0.00	30.303 
08:55	29.8	29.8	29.8	97	29.1	0	1	90	0.00	30.303 
09:00	29.8	29.8	29.8	97	29.1	0	0	---	0.00	30.309 
09:05	29.8	29.8	29.8	97	29.1	0	1	90	0.00	30.309 
09:10	29.8	29.8	29.8	97	29.1	0	0	---	0.00	30.309 
09:15	29.8	29.8	29.8	97	29.1	0	1	90	0.00	30.316 
09:20	30.0	30.0	30.0	97	29.3	0	2	90	0.00	30.316 
09:25	30.1	30.1	30.1	97	29.4	0	1	90	0.00	30.316 
09:30	30.3	30.3	30.3	97	29.6	0	1	90	0.00	30.316 
09:35	30.3	30.3	30.3	97	29.6	0	1	90	0.00	30.316 
09:40	30.4	30.4	30.4	97	29.7	0	1	90	0.00	30.316 
09:45	30.6	30.6	30.6	97	29.9	0	1	90	0.00	30.313 
09:50	30.6	30.6	30.6	97	29.9	0	1	90	0.00	30.313 
09:55	30.7	30.7	30.7	97	30.0	0	1	90	0.00	30.313 
10:00	30.7	30.7	30.7	97	30.0	0	1	90	0.00	30.313 
10:05	30.7	30.7	30.7	97	30.0	0	0	---	0.00	30.313 
10:10	30.9	30.9	30.9	97	30.2	0	1	90	0.00	30.313 
10:15	31.2	31.2	31.2	98	30.7	0	2	90	0.00	30.307 
10:20	31.3	31.3	31.3	98	30.8	0	2	90	0.00	30.307 
10:25	31.6	31.6	31.6	98	31.1	0	2	90	0.00	30.307 
10:30	31.8	31.8	31.8	98	31.3	0	1	90	0.00	30.308 
10:35	31.9	31.9	31.9	98	31.4	0	2	90	0.00	30.308 
10:40	32.1	32.1	32.1	98	31.6	0	2	90	0.00	30.308 
10:45	32.4	32.4	32.4	98	31.9	0	1	112	0.00	30.310 
10:50	32.4	32.4	32.4	98	31.9	1	3	112	0.00	30.310 
10:55	32.5	32.5	32.5	98	32.0	0	2	112	0.00	30.310 
11:00	32.9	32.9	32.9	98	32.4	1	3	112	0.00	30.309 
11:05	32.9	32.9	32.9	98	32.4	2	4	90	0.00	30.309 
11:10	32.8	32.8	32.8	98	32.3	1	4	90	0.00	30.309 
11:15	32.8	32.8	32.8	98	32.3	1	3	112	0.00	30.313 
11:20	32.7	32.7	32.7	98	32.2	1	2	112	0.00	30.313 
11:25	32.8	32.8	32.8	98	32.3	1	3	112	0.00	30.313 
11:30	33.4	33.4	33.4	98	32.9	1	2	112	0.00	30.311 
11:35	33.7	33.7	33.7	98	33.2	1	2	112	0.00	30.311 
11:40	34.0	34.0	34.0	98	33.5	0	1	90	0.00	30.311 
11:45	33.8	33.8	33.8	98	33.3	1	3	112	0.00	30.305 
11:50	33.7	33.7	33.7	98	33.2	0	2	112	0.00	30.305 
11:55	34.1	34.1	34.1	98	33.6	0	2	112	0.00	30.305 
12:00	34.7	34.7	34.7	98	34.2	1	3	112	0.00	30.296 
12:05	34.9	34.9	34.9	98	34.4	1	2	112	0.00	30.296 
12:10	34.9	34.9	34.9	98	34.4	1	2	135	0.00	30.296 
12:15	35.0	35.0	35.0	98	34.5	1	2	135	0.00	30.287 
12:20	34.9	34.9	34.9	98	34.4	1	2	135	0.00	30.287 
12:25	35.0	35.0	35.0	98	34.5	0	2	135	0.00	30.287 
12:30	35.5	35.5	35.5	98	35.0	0	1	112	0.00	30.284 
12:35	35.8	35.8	35.8	98	35.3	0	1	112	0.00	30.284 
12:40	36.0	36.0	36.0	98	35.5	0	1	135	0.00	30.284 
12:45	36.0	36.0	36.0	98	35.5	1	2	135	0.00	30.281 
12:50	36.2	36.2	36.2	98	35.7	0	1	135	0.00	30.281 
12:55	36.5	36.5	36.5	99	36.2	0	2	135	0.00	30.281 
13:00	36.6	36.6	36.6	99	36.3	0	2	135	0.00	30.275 
13:05	36.6	36.6	36.6	99	36.3	0	2	135	0.00	30.275 
13:10	36.9	36.9	36.9	99	36.6	0	1	135	0.00	30.275 
13:15	37.3	37.3	37.3	99	37.0	0	2	135	0.00	30.275 
13:20	37.5	37.5	37.5	99	37.2	0	1	135	0.00	30.275 
13:25	37.6	37.6	37.6	99	37.3	0	1	135	0.00	30.275 
13:30	37.9	37.9	37.9	99	37.6	0	1	135	0.00	30.271 
13:35	38.0	38.0	38.0	99	37.7	0	1	135	0.00	30.271 
13:40	38.3	38.3	38.3	99	38.0	1	2	90	0.00	30.271 
13:45	38.3	38.3	38.3	99	38.0	1	4	112	0.00	30.269 
13:50	38.5	38.5	38.5	99	38.2	1	3	112	0.00	30.269 
13:55	38.8	38.8	38.8	99	38.5	1	4	90	0.00	30.269 
14:00	39.1	39.1	39.1	99	38.8	1	3	90	0.00	30.276 
14:05	39.3	39.3	39.3	99	39.0	1	3	90	0.00	30.276 
14:10	39.8	39.8	39.8	98	39.3	1	4	90	0.00	30.276 
14:15	40.1	40.1	40.1	98	39.6	1	3	90	0.00	30.264 
14:20	40.3	40.3	40.3	97	39.5	1	4	90	0.00	30.264 
14:25	40.6	40.6	40.6	95	39.3	1	2	90	0.00	30.264 
14:30	41.1	41.1	41.1	92	39.0	0	2	90	0.00	30.262 
14:35	41.2	41.2	41.2	91	38.8	1	2	90	0.00	30.262 
14:40	41.3	41.3	41.3	88	38.0	1	3	90	0.00	30.262 
14:45	41.6	41.6	41.6	88	38.3	1	4	90	0.00	30.262 
14:50	41.8	41.8	41.8	85	37.6	1	3	90	0.00	30.262 
14:55	42.2	42.2	42.2	85	38.0	1	3	90	0.00	30.262 
15:00	42.6	42.6	42.6	83	37.8	1	3	90	0.00	30.258 
15:05	43.1	43.1	43.1	82	38.0	1	3	90	0.00	30.258 
15:10	43.3	43.3	43.3	81	37.9	2	5	90	0.00	30.258 
15:15	43.5	43.5	43.5	81	38.1	2	5	112	0.00	30.254 
15:20	43.5	43.5	43.5	81	38.1	3	4	112	0.00	30.254 
15:25	43.5	43.5	43.5	81	38.1	1	3	112	0.00	30.254 
15:30	43.5	43.5	43.5	80	37.7	1	3	90	0.00	30.253 
15:35	43.6	43.6	43.6	80	37.8	2	4	90	0.00	30.253 
15:40	43.5	43.5	43.5	80	37.7	2	4	90	0.00	30.253 
15:45	43.5	43.5	43.5	80	37.7	1	4	112	0.00	30.249 
15:50	43.3	43.3	43.3	79	37.2	2	4	112	0.00	30.249 
15:55	43.3	43.3	43.3	79	37.2	2	3	90	0.00	30.249 
16:00	43.3	43.3	43.3	79	37.2	2	4	68	0.00	30.247 
16:05	43.3	43.3	43.3	78	36.9	1	4	112	0.00	30.247 
16:10	43.5	43.5	43.5	78	37.1	1	3	112	0.00	30.247 
16:15	43.5	43.5	43.5	78	37.1	1	4	112	0.00	30.252 
16:20	43.3	43.3	43.3	78	36.9	1	4	90	0.00	30.252 
16:25	43.3	43.3	43.3	78	36.9	1	3	90	0.00	30.252 
16:30	43.2	43.2	43.2	78	36.8	1	3	90	0.00	30.251 
16:35	43.1	43.1	43.1	78	36.7	1	4	90	0.00	30.251 
16:40	42.9	42.9	42.9	78	36.5	1	3	90	0.00	30.251 
16:45	42.8	42.8	42.8	78	36.4	1	2	90	0.00	30.255 
16:50	42.6	42.6	42.6	77	35.9	0	1	90	0.00	30.255 
16:55	42.3	42.3	42.3	78	35.9	0	2	90	0.00	30.255 
17:00	42.1	42.1	42.1	78	35.7	0	1	90	0.00	30.256 
17:05	41.6	41.6	41.6	79	35.6	0	1	90	0.00	30.256 
17:10	41.2	41.2	41.2	80	35.5	0	1	90	0.00	30.256 
17:15	40.9	40.9	40.9	81	35.5	0	1	90	0.00	30.261 
17:20	40.6	40.6	40.6	82	35.5	0	2	90	0.00	30.261 
17:25	40.3	40.3	40.3	82	35.2	0	0	---	0.00	30.261 
17:30	40.1	40.1	40.1	82	35.1	0	0	---	0.00	30.267 
17:35	39.6	39.6	39.6	82	34.6	0	0	---	0.00	30.267 
17:40	39.1	39.1	39.1	82	34.1	0	0	---	0.00	30.267 
17:45	38.5	38.5	38.5	83	33.8	0	0	---	0.00	30.265 
17:50	37.9	37.9	37.9	85	33.8	0	0	---	0.00	30.265 
17:55	37.5	37.5	37.5	85	33.4	0	0	---	0.00	30.265 
18:00	37.0	37.0	37.0	86	33.2	0	0	---	0.00	30.267 
18:05	36.6	36.6	36.6	86	32.8	0	0	---	0.00	30.267 
18:10	36.2	36.2	36.2	86	32.4	0	0	---	0.00	30.267 
18:15	35.9	35.9	35.9	87	32.4	0	0	---	0.00	30.274 
18:20	35.5	35.5	35.5	87	32.0	0	0	---	0.00	30.274 
18:25	35.2	35.2	35.2	88	32.0	0	0	---	0.00	30.274 
18:30	34.7	34.7	34.7	89	31.8	0	0	---	0.00	30.276 
18:35	34.4	34.4	34.4	89	31.5	0	0	---	0.00	30.276 
18:40	34.3	34.3	34.3	90	31.7	0	0	---	0.00	30.276 
18:45	34.3	34.3	34.3	91	32.0	0	0	---	0.00	30.275 
18:50	34.3	34.3	34.3	91	32.0	0	0	---	0.00	30.275 
18:55	34.0	34.0	34.0	91	31.7	0	0	---	0.00	30.275 
19:00	33.8	33.8	33.8	92	31.7	0	0	---	0.00	30.277 
19:05	33.5	33.5	33.5	91	31.2	0	0	---	0.00	30.277 
19:10	33.2	33.2	33.2	92	31.1	0	0	---	0.00	30.277 
19:15	33.1	33.1	33.1	92	31.0	0	0	---	0.00	30.282 
19:20	32.8	32.8	32.8	92	30.7	0	0	---	0.00	30.282 
19:25	32.8	32.8	32.8	92	30.7	0	0	---	0.00	30.282 
19:30	32.7	32.7	32.7	92	30.6	0	0	---	0.00	30.283 
19:35	32.4	32.4	32.4	92	30.3	0	0	---	0.00	30.283 
19:40	32.1	32.1	32.1	92	30.0	0	0	---	0.00	30.283 
19:45	31.8	31.8	31.8	92	29.7	0	0	---	0.00	30.283 
19:50	31.5	31.5	31.5	92	29.4	0	0	---	0.00	30.283 
19:55	31.5	31.5	31.5	93	29.7	0	0	---	0.00	30.283 
20:00	31.3	31.3	31.3	93	29.5	0	0	---	0.00	30.285 
20:05	31.2	31.2	31.2	93	29.4	0	0	---	0.00	30.285 
20:10	30.9	30.9	30.9	93	29.1	0	0	---	0.00	30.285 
20:15	30.7	30.7	30.7	93	28.9	0	0	---	0.00	30.285 
20:20	30.6	30.6	30.6	93	28.8	0	0	---	0.00	30.285 
20:25	30.6	30.6	30.6	93	28.8	0	0	---	0.00	30.285 
20:30	30.4	30.4	30.4	93	28.6	0	0	---	0.00	30.285 
20:35	30.4	30.4	30.4	93	28.6	0	0	---	0.00	30.285 
20:40	30.4	30.4	30.4	94	28.9	0	0	---	0.00	30.285 
20:45	30.3	30.3	30.3	94	28.8	0	0	---	0.00	30.282 
20:50	30.1	30.1	30.1	94	28.6	0	0	---	0.00	30.282 
20:55	30.0	30.0	30.0	94	28.5	0	0	---	0.00	30.282 
21:00	30.0	30.0	30.0	94	28.5	0	0	---	0.00	30.276 
21:05	29.8	29.8	29.8	94	28.3	0	0	---	0.00	30.276 
21:10	29.7	29.7	29.7	94	28.2	0	0	---	0.00	30.276 
21:15	29.5	29.5	29.5	94	28.0	0	0	---	0.00	30.280 
21:20	29.3	29.3	29.3	94	27.8	0	0	---	0.00	30.280 
21:25	29.3	29.3	29.3	94	27.8	0	0	---	0.00	30.280 
21:30	29.4	29.4	29.4	94	27.9	0	0	---	0.00	30.277 
21:35	29.4	29.4	29.4	95	28.1	0	0	---	0.00	30.277 
21:40	29.5	29.5	29.5	95	28.2	0	0	---	0.00	30.277 
21:45	29.7	29.7	29.7	95	28.4	0	0	---	0.00	30.271 
21:50	29.7	29.7	29.7	95	28.4	0	1	90	0.00	30.271 
21:55	29.8	29.8	29.8	95	28.5	0	2	90	0.00	30.271 
22:00	29.8	29.8	29.8	95	28.5	0	0	---	0.00	30.267 
22:05	29.8	29.8	29.8	95	28.5	0	0	---	0.00	30.267 
22:10	29.7	29.7	29.7	95	28.4	0	0	---	0.00	30.267 
22:15	29.5	29.5	29.5	95	28.2	0	0	---	0.00	30.263 
22:20	29.5	29.5	29.5	95	28.2	0	0	---	0.00	30.263 
22:25	29.4	29.4	29.4	96	28.4	0	0	---	0.00	30.263 
22:30	29.4	29.4	29.4	96	28.4	0	0	---	0.00	30.262 
22:35	29.4	29.4	29.4	96	28.4	0	0	---	0.00	30.262 
22:40	29.4	29.4	29.4	96	28.4	0	0	---	0.00	30.262 
22:45	29.3	29.3	29.3	96	28.3	0	0	---	0.00	30.260 
22:50	29.3	29.3	29.3	96	28.3	0	0	---	0.00	30.260 
22:55	29.1	29.1	29.1	96	28.1	0	0	---	0.00	30.260 
23:00	29.1	29.1	29.1	96	28.1	0	0	---	0.00	30.255 
23:05	29.0	29.0	29.0	96	28.0	0	0	---	0.00	30.255 
23:10	29.0	29.0	29.0	96	28.0	0	0	---	0.00	30.255 
23:15	28.8	28.8	28.8	96	27.8	0	0	---	0.00	30.256 
23:20	28.8	28.8	28.8	96	27.8	0	0	---	0.00	30.256 
23:25	28.7	28.7	28.7	96	27.7	0	0	---	0.00	30.256 
23:30	28.7	28.7	28.7	96	27.7	0	0	---	0.00	30.255 
23:35	28.5	28.5	28.5	96	27.5	0	0	---	0.00	30.255 
23:40	28.5	28.5	28.5	96	27.5	0	0	---	0.00	30.255 
23:45	28.5	28.5	28.5	96	27.5	0	0	---	0.00	30.251 
23:50	28.4	28.4	28.4	96	27.4	0	0	---	0.00	30.251 
23:55	28.2	28.2	28.2	96	27.2	0	0	---	0.00	30.251 

CoCoRaHS
IN-AL-39
A2 Web Hosting
Creative Commons License
GoDaddy
Look for:

loaded 2017-12-11 06:52:34 • last modified 2010-11-18 10:43:29
Privacy PolicyDisclaimer
• wx.awcolley.com is powered by PmWiki v.2002016 •
• all content (unless otherwise noted) © 2017 A W Colley